sensor_id;sensor_type;location;lat;lon;timestamp;pressure;altitude;pressure_sealevel;temperature;humidity
26083;BME280;13848;49.018;12.078;2023-05-19T00:01:31;98229.50;;;12.43;58.30
26083;BME280;13848;49.018;12.078;2023-05-19T00:03:59;98228.91;;;12.41;58.22
26083;BME280;13848;49.018;12.078;2023-05-19T00:06:26;98224.97;;;12.37;58.17
26083;BME280;13848;49.018;12.078;2023-05-19T00:08:56;98230.22;;;12.32;58.90
26083;BME280;13848;49.018;12.078;2023-05-19T00:11:23;98220.88;;;12.28;58.33
26083;BME280;13848;49.018;12.078;2023-05-19T00:13:49;98215.69;;;12.27;58.49
26083;BME280;13848;49.018;12.078;2023-05-19T00:16:16;98223.00;;;12.26;59.21
26083;BME280;13848;49.018;12.078;2023-05-19T00:18:42;98220.09;;;12.21;59.22
26083;BME280;13848;49.018;12.078;2023-05-19T00:21:09;98218.19;;;12.28;59.56
26083;BME280;13848;49.018;12.078;2023-05-19T00:23:35;98215.94;;;12.25;59.65
26083;BME280;13848;49.018;12.078;2023-05-19T00:26:01;98211.41;;;12.19;59.44
26083;BME280;13848;49.018;12.078;2023-05-19T00:28:27;98217.47;;;12.14;59.74
26083;BME280;13848;49.018;12.078;2023-05-19T00:30:53;98209.41;;;12.08;59.88
26083;BME280;13848;49.018;12.078;2023-05-19T00:33:19;98203.59;;;12.04;60.44
26083;BME280;13848;49.018;12.078;2023-05-19T00:35:45;98203.81;;;12.03;59.92
26083;BME280;13848;49.018;12.078;2023-05-19T00:38:12;98212.31;;;12.06;59.64
26083;BME280;13848;49.018;12.078;2023-05-19T00:40:38;98213.16;;;12.07;59.00
26083;BME280;13848;49.018;12.078;2023-05-19T00:43:05;98203.22;;;12.01;59.44
26083;BME280;13848;49.018;12.078;2023-05-19T00:45:31;98196.19;;;11.93;59.35
26083;BME280;13848;49.018;12.078;2023-05-19T00:47:56;98199.09;;;11.91;59.58
26083;BME280;13848;49.018;12.078;2023-05-19T00:50:22;98202.41;;;11.93;59.17
26083;BME280;13848;49.018;12.078;2023-05-19T00:52:48;98194.75;;;11.90;59.49
26083;BME280;13848;49.018;12.078;2023-05-19T00:55:16;98195.63;;;11.84;59.97
26083;BME280;13848;49.018;12.078;2023-05-19T00:57:43;98186.25;;;11.80;59.92
26083;BME280;13848;49.018;12.078;2023-05-19T01:00:10;98189.59;;;11.76;59.54
26083;BME280;13848;49.018;12.078;2023-05-19T01:02:36;98188.41;;;11.71;59.74
26083;BME280;13848;49.018;12.078;2023-05-19T01:05:03;98188.25;;;11.60;60.24
26083;BME280;13848;49.018;12.078;2023-05-19T01:07:29;98187.22;;;11.61;60.38
26083;BME280;13848;49.018;12.078;2023-05-19T01:09:55;98178.50;;;11.52;60.78
26083;BME280;13848;49.018;12.078;2023-05-19T01:12:22;98182.66;;;11.55;60.54
26083;BME280;13848;49.018;12.078;2023-05-19T01:14:48;98190.13;;;11.53;60.60
26083;BME280;13848;49.018;12.078;2023-05-19T01:17:20;98186.00;;;11.50;60.71
26083;BME280;13848;49.018;12.078;2023-05-19T01:19:56;98185.59;;;11.46;60.85
26083;BME280;13848;49.018;12.078;2023-05-19T01:22:40;98183.13;;;11.45;61.29
26083;BME280;13848;49.018;12.078;2023-05-19T01:25:33;98181.47;;;11.44;61.03
26083;BME280;13848;49.018;12.078;2023-05-19T01:28:18;98185.22;;;11.43;61.09
26083;BME280;13848;49.018;12.078;2023-05-19T01:30:51;98184.41;;;11.42;61.10
26083;BME280;13848;49.018;12.078;2023-05-19T01:33:20;98187.50;;;11.39;61.35
26083;BME280;13848;49.018;12.078;2023-05-19T01:35:46;98190.84;;;11.35;61.23
26083;BME280;13848;49.018;12.078;2023-05-19T01:38:15;98185.44;;;11.35;61.48
26083;BME280;13848;49.018;12.078;2023-05-19T01:40:43;98184.41;;;11.42;60.82
26083;BME280;13848;49.018;12.078;2023-05-19T01:43:13;98181.06;;;11.40;61.36
26083;BME280;13848;49.018;12.078;2023-05-19T01:45:40;98179.41;;;11.39;61.03
26083;BME280;13848;49.018;12.078;2023-05-19T01:48:08;98179.22;;;11.34;61.74
26083;BME280;13848;49.018;12.078;2023-05-19T01:50:34;98182.78;;;11.28;61.68
26083;BME280;13848;49.018;12.078;2023-05-19T01:53:00;98176.78;;;11.26;61.71
26083;BME280;13848;49.018;12.078;2023-05-19T01:55:26;98167.81;;;11.32;61.67
26083;BME280;13848;49.018;12.078;2023-05-19T01:57:59;98169.47;;;11.33;61.37
26083;BME280;13848;49.018;12.078;2023-05-19T02:00:33;98170.50;;;11.32;61.94
26083;BME280;13848;49.018;12.078;2023-05-19T02:03:11;98169.88;;;11.37;61.89
26083;BME280;13848;49.018;12.078;2023-05-19T02:05:44;98173.19;;;11.39;61.40
26083;BME280;13848;49.018;12.078;2023-05-19T02:08:19;98162.59;;;11.37;61.22
26083;BME280;13848;49.018;12.078;2023-05-19T02:10:50;98170.47;;;11.39;61.18
26083;BME280;13848;49.018;12.078;2023-05-19T02:13:23;98164.63;;;11.42;60.97
26083;BME280;13848;49.018;12.078;2023-05-19T02:15:51;98170.25;;;11.40;60.97
26083;BME280;13848;49.018;12.078;2023-05-19T02:18:21;98169.03;;;11.36;60.30
26083;BME280;13848;49.018;12.078;2023-05-19T02:20:48;98164.28;;;11.32;60.76
26083;BME280;13848;49.018;12.078;2023-05-19T02:23:14;98163.63;;;11.36;60.99
26083;BME280;13848;49.018;12.078;2023-05-19T02:25:40;98161.97;;;11.35;60.90
26083;BME280;13848;49.018;12.078;2023-05-19T02:28:06;98156.78;;;11.34;60.46
26083;BME280;13848;49.018;12.078;2023-05-19T02:30:32;98157.03;;;11.32;60.65
26083;BME280;13848;49.018;12.078;2023-05-19T02:32:58;98161.97;;;11.35;60.83
26083;BME280;13848;49.018;12.078;2023-05-19T02:35:25;98156.38;;;11.30;60.93
26083;BME280;13848;49.018;12.078;2023-05-19T02:37:51;98156.56;;;11.35;60.88
26083;BME280;13848;49.018;12.078;2023-05-19T02:40:17;98153.28;;;11.33;60.82
26083;BME280;13848;49.018;12.078;2023-05-19T02:42:43;98156.56;;;11.35;61.09
26083;BME280;13848;49.018;12.078;2023-05-19T02:45:09;98161.09;;;11.41;60.90
26083;BME280;13848;49.018;12.078;2023-05-19T02:47:35;98159.09;;;11.37;60.49
26083;BME280;13848;49.018;12.078;2023-05-19T02:50:01;98160.75;;;11.31;60.91
26083;BME280;13848;49.018;12.078;2023-05-19T02:52:29;98151.63;;;11.32;60.77
26083;BME280;13848;49.018;12.078;2023-05-19T02:54:55;98153.28;;;11.33;61.12
26083;BME280;13848;49.018;12.078;2023-05-19T02:57:21;98154.34;;;11.26;60.71
26083;BME280;13848;49.018;12.078;2023-05-19T02:59:46;98152.69;;;11.18;60.66
26083;BME280;13848;49.018;12.078;2023-05-19T03:02:12;98147.50;;;11.23;60.95
26083;BME280;13848;49.018;12.078;2023-05-19T03:04:38;98142.91;;;11.24;60.94
26083;BME280;13848;49.018;12.078;2023-05-19T03:07:04;98148.72;;;11.27;60.71
26083;BME280;13848;49.018;12.078;2023-05-19T03:09:31;98148.50;;;11.29;60.47
26083;BME280;13848;49.018;12.078;2023-05-19T03:11:57;98148.72;;;11.27;60.65
26083;BME280;13848;49.018;12.078;2023-05-19T03:14:23;98149.34;;;11.29;60.53
26083;BME280;13848;49.018;12.078;2023-05-19T03:16:49;98142.88;;;11.30;60.61
26083;BME280;13848;49.018;12.078;2023-05-19T03:19:15;98151.28;;;11.15;60.58
26083;BME280;13848;49.018;12.078;2023-05-19T03:21:41;98135.06;;;11.22;61.02
26083;BME280;13848;49.018;12.078;2023-05-19T03:24:07;98144.19;;;11.21;60.47
26083;BME280;13848;49.018;12.078;2023-05-19T03:26:34;98147.50;;;11.23;60.58
26083;BME280;13848;49.018;12.078;2023-05-19T03:29:00;98155.38;;;11.25;60.84
26083;BME280;13848;49.018;12.078;2023-05-19T03:31:26;98157.03;;;11.32;60.87
26083;BME280;13848;49.018;12.078;2023-05-19T03:33:52;98155.75;;;11.35;60.78
26083;BME280;13848;49.018;12.078;2023-05-19T03:36:18;98167.00;;;11.32;60.25
26083;BME280;13848;49.018;12.078;2023-05-19T03:38:44;98162.84;;;11.29;60.76
26083;BME280;13848;49.018;12.078;2023-05-19T03:41:10;98162.22;;;11.27;60.73
26083;BME280;13848;49.018;12.078;2023-05-19T03:43:37;98163.47;;;11.31;60.56
26083;BME280;13848;49.018;12.078;2023-05-19T03:46:03;98159.72;;;11.32;60.98
26083;BME280;13848;49.018;12.078;2023-05-19T03:48:29;98165.72;;;11.34;60.35
26083;BME280;13848;49.018;12.078;2023-05-19T03:50:55;98164.06;;;11.33;60.43
26083;BME280;13848;49.018;12.078;2023-05-19T03:53:21;98168.03;;;11.31;60.81
26083;BME280;13848;49.018;12.078;2023-05-19T03:55:47;98169.91;;;11.24;61.17
26083;BME280;13848;49.018;12.078;2023-05-19T03:58:13;98171.97;;;11.28;60.63
26083;BME280;13848;49.018;12.078;2023-05-19T04:00:40;98167.44;;;11.22;61.16
26083;BME280;13848;49.018;12.078;2023-05-19T04:03:06;98166.16;;;11.31;60.53
26083;BME280;13848;49.018;12.078;2023-05-19T04:05:32;98171.56;;;11.31;61.08
26083;BME280;13848;49.018;12.078;2023-05-19T04:07:58;98168.88;;;11.31;60.37
26083;BME280;13848;49.018;12.078;2023-05-19T04:10:24;98167.00;;;11.32;60.87
26083;BME280;13848;49.018;12.078;2023-05-19T04:12:50;98173.63;;;11.29;60.97
26083;BME280;13848;49.018;12.078;2023-05-19T04:15:16;98172.78;;;11.35;60.69
26083;BME280;13848;49.018;12.078;2023-05-19T04:17:43;98171.94;;;11.35;60.62
26083;BME280;13848;49.018;12.078;2023-05-19T04:20:10;98169.47;;;11.33;60.60
26083;BME280;13848;49.018;12.078;2023-05-19T04:22:36;98172.34;;;11.38;60.84
26083;BME280;13848;49.018;12.078;2023-05-19T04:25:03;98172.78;;;11.35;61.00
26083;BME280;13848;49.018;12.078;2023-05-19T04:27:29;98175.66;;;11.40;60.58
26083;BME280;13848;49.018;12.078;2023-05-19T04:29:54;98168.19;;;11.42;61.31
26083;BME280;13848;49.018;12.078;2023-05-19T04:32:20;98158.44;;;11.35;61.02
26083;BME280;13848;49.018;12.078;2023-05-19T04:34:48;98167.56;;;11.40;61.69
26083;BME280;13848;49.018;12.078;2023-05-19T04:37:13;98168.78;;;11.44;61.80
26083;BME280;13848;49.018;12.078;2023-05-19T04:39:39;98169.03;;;11.36;61.64
26083;BME280;13848;49.018;12.078;2023-05-19T04:42:05;98170.03;;;11.49;61.12
26083;BME280;13848;49.018;12.078;2023-05-19T04:44:31;98160.69;;;11.44;61.13
26083;BME280;13848;49.018;12.078;2023-05-19T04:46:57;98171.88;;;11.55;61.01
26083;BME280;13848;49.018;12.078;2023-05-19T04:49:23;98171.91;;;11.48;61.68
26083;BME280;13848;49.018;12.078;2023-05-19T04:51:50;98166.91;;;11.45;61.36
26083;BME280;13848;49.018;12.078;2023-05-19T04:54:16;98165.66;;;11.48;61.24
26083;BME280;13848;49.018;12.078;2023-05-19T04:56:42;98166.88;;;11.52;61.36
26083;BME280;13848;49.018;12.078;2023-05-19T04:59:08;98169.81;;;11.50;61.70
26083;BME280;13848;49.018;12.078;2023-05-19T05:01:34;98172.53;;;11.43;61.30
26083;BME280;13848;49.018;12.078;2023-05-19T05:04:00;98173.47;;;11.62;61.07
26083;BME280;13848;49.018;12.078;2023-05-19T05:06:26;98172.19;;;11.65;61.62
26083;BME280;13848;49.018;12.078;2023-05-19T05:08:53;98164.91;;;11.72;61.07
26083;BME280;13848;49.018;12.078;2023-05-19T05:11:20;98168.44;;;11.72;61.28
26083;BME280;13848;49.018;12.078;2023-05-19T05:13:46;98163.31;;;11.58;61.47
26083;BME280;13848;49.018;12.078;2023-05-19T05:16:13;98166.78;;;11.65;61.33
26083;BME280;13848;49.018;12.078;2023-05-19T05:18:39;98168.28;;;11.61;61.77
26083;BME280;13848;49.018;12.078;2023-05-19T05:21:06;98161.63;;;11.63;61.88
26083;BME280;13848;49.018;12.078;2023-05-19T05:23:33;98162.72;;;11.56;61.37
26083;BME280;13848;49.018;12.078;2023-05-19T05:26:06;98163.09;;;11.66;61.69
26083;BME280;13848;49.018;12.078;2023-05-19T05:28:34;98154.28;;;11.77;61.34
26083;BME280;13848;49.018;12.078;2023-05-19T05:31:00;98159.75;;;11.64;61.19
26083;BME280;13848;49.018;12.078;2023-05-19T05:33:25;98157.69;;;11.66;61.43
26083;BME280;13848;49.018;12.078;2023-05-19T05:35:52;98153.28;;;11.65;61.20
26083;BME280;13848;49.018;12.078;2023-05-19T05:38:18;98153.59;;;11.88;60.95
26083;BME280;13848;49.018;12.078;2023-05-19T05:40:43;98154.13;;;12.04;61.44
26083;BME280;13848;49.018;12.078;2023-05-19T05:43:11;98158.69;;;12.03;60.77
26083;BME280;13848;49.018;12.078;2023-05-19T05:45:37;98155.75;;;12.05;60.54
26083;BME280;13848;49.018;12.078;2023-05-19T05:48:03;98153.44;;;11.83;61.18
26083;BME280;13848;49.018;12.078;2023-05-19T05:50:30;98148.72;;;12.04;60.50
26083;BME280;13848;49.018;12.078;2023-05-19T05:52:56;98149.28;;;12.12;60.68
26083;BME280;13848;49.018;12.078;2023-05-19T05:55:26;98156.88;;;12.22;60.92
26083;BME280;13848;49.018;12.078;2023-05-19T05:57:52;98157.38;;;12.12;60.47
26083;BME280;13848;49.018;12.078;2023-05-19T06:00:20;98162.50;;;12.20;59.89
26083;BME280;13848;49.018;12.078;2023-05-19T06:02:48;98159.09;;;12.07;60.31
26083;BME280;13848;49.018;12.078;2023-05-19T06:05:14;98156.00;;;12.28;60.38
26083;BME280;13848;49.018;12.078;2023-05-19T06:07:41;98150.03;;;12.44;60.32
26083;BME280;13848;49.018;12.078;2023-05-19T06:10:08;98147.81;;;12.60;59.45
26083;BME280;13848;49.018;12.078;2023-05-19T06:12:35;98151.28;;;12.67;59.92
26083;BME280;13848;49.018;12.078;2023-05-19T06:15:01;98146.78;;;12.79;59.64
26083;BME280;13848;49.018;12.078;2023-05-19T06:17:28;98137.53;;;12.87;59.95
26083;BME280;13848;49.018;12.078;2023-05-19T06:19:54;98139.72;;;12.96;59.63
26083;BME280;13848;49.018;12.078;2023-05-19T06:22:20;98140.63;;;12.90;58.71
26083;BME280;13848;49.018;12.078;2023-05-19T06:24:46;98134.81;;;12.87;59.65
26083;BME280;13848;49.018;12.078;2023-05-19T06:27:12;98137.97;;;13.02;58.87
26083;BME280;13848;49.018;12.078;2023-05-19T06:29:38;98135.19;;;13.09;59.17
26083;BME280;13848;49.018;12.078;2023-05-19T06:32:04;98131.56;;;13.15;58.96
26083;BME280;13848;49.018;12.078;2023-05-19T06:34:31;98131.47;;;13.28;59.25
26083;BME280;13848;49.018;12.078;2023-05-19T06:36:58;98134.44;;;13.38;58.78
26083;BME280;13848;49.018;12.078;2023-05-19T06:39:24;98139.75;;;13.45;58.86
26083;BME280;13848;49.018;12.078;2023-05-19T06:41:50;98141.94;;;13.54;58.62
26083;BME280;13848;49.018;12.078;2023-05-19T06:44:16;98138.50;;;13.47;58.58
26083;BME280;13848;49.018;12.078;2023-05-19T06:46:42;98144.00;;;13.71;58.58
26083;BME280;13848;49.018;12.078;2023-05-19T06:49:07;98143.22;;;13.82;58.38
26083;BME280;13848;49.018;12.078;2023-05-19T06:51:35;98139.72;;;14.05;58.24
26083;BME280;13848;49.018;12.078;2023-05-19T06:54:01;98137.25;;;13.92;56.60
26083;BME280;13848;49.018;12.078;2023-05-19T06:56:27;98137.97;;;14.10;57.43
26083;BME280;13848;49.018;12.078;2023-05-19T06:58:53;98144.38;;;14.28;57.15
26083;BME280;13848;49.018;12.078;2023-05-19T07:01:19;98141.09;;;14.49;56.28
26083;BME280;13848;49.018;12.078;2023-05-19T07:03:44;98131.31;;;14.72;56.39
26083;BME280;13848;49.018;12.078;2023-05-19T07:06:11;98126.22;;;14.75;55.66
26083;BME280;13848;49.018;12.078;2023-05-19T07:08:38;98133.28;;;15.00;55.67
26083;BME280;13848;49.018;12.078;2023-05-19T07:11:04;98132.25;;;15.29;55.76
26083;BME280;13848;49.018;12.078;2023-05-19T07:13:30;98124.66;;;15.43;54.03
26083;BME280;13848;49.018;12.078;2023-05-19T07:15:56;98123.97;;;15.36;54.83
26083;BME280;13848;49.018;12.078;2023-05-19T07:18:22;98123.00;;;15.42;54.43
26083;BME280;13848;49.018;12.078;2023-05-19T07:20:50;98120.19;;;15.37;53.54
26083;BME280;13848;49.018;12.078;2023-05-19T07:23:16;98127.84;;;15.40;54.15
26083;BME280;13848;49.018;12.078;2023-05-19T07:25:44;98120.28;;;15.13;53.35
26083;BME280;13848;49.018;12.078;2023-05-19T07:28:09;98117.81;;;15.00;53.46
26083;BME280;13848;49.018;12.078;2023-05-19T07:30:35;98117.22;;;14.98;54.13
26083;BME280;13848;49.018;12.078;2023-05-19T07:33:01;98120.75;;;15.10;54.16
26083;BME280;13848;49.018;12.078;2023-05-19T07:35:27;98118.06;;;14.99;52.96
26083;BME280;13848;49.018;12.078;2023-05-19T07:37:54;98120.09;;;14.92;54.17
26083;BME280;13848;49.018;12.078;2023-05-19T07:40:19;98123.91;;;15.07;54.37
26083;BME280;13848;49.018;12.078;2023-05-19T07:42:48;98117.22;;;14.98;53.95
26083;BME280;13848;49.018;12.078;2023-05-19T07:45:14;98126.78;;;15.01;54.02
26083;BME280;13848;49.018;12.078;2023-05-19T07:47:40;98125.94;;;15.00;54.26
26083;BME280;13848;49.018;12.078;2023-05-19T07:50:06;98118.75;;;14.94;54.02
26083;BME280;13848;49.018;12.078;2023-05-19T07:52:32;98119.09;;;15.09;54.00
26083;BME280;13848;49.018;12.078;2023-05-19T07:54:58;98113.63;;;15.21;54.04
26083;BME280;13848;49.018;12.078;2023-05-19T07:57:24;98116.66;;;15.25;53.65
26083;BME280;13848;49.018;12.078;2023-05-19T07:59:52;98103.41;;;15.40;53.81
26083;BME280;13848;49.018;12.078;2023-05-19T08:02:17;98105.41;;;15.44;53.55
26083;BME280;13848;49.018;12.078;2023-05-19T08:04:43;98113.97;;;15.53;53.86
26083;BME280;13848;49.018;12.078;2023-05-19T08:07:10;98111.25;;;15.82;53.77
26083;BME280;13848;49.018;12.078;2023-05-19T08:09:36;98106.81;;;15.76;53.36
26083;BME280;13848;49.018;12.078;2023-05-19T08:12:02;98110.56;;;15.46;52.55
26083;BME280;13848;49.018;12.078;2023-05-19T08:14:28;98111.25;;;15.53;52.78
26083;BME280;13848;49.018;12.078;2023-05-19T08:16:55;98112.25;;;15.76;52.97
26083;BME280;13848;49.018;12.078;2023-05-19T08:19:21;98100.38;;;15.82;53.11
26083;BME280;13848;49.018;12.078;2023-05-19T08:21:47;98104.03;;;16.04;53.02
26083;BME280;13848;49.018;12.078;2023-05-19T08:24:13;98102.41;;;16.03;52.30
26083;BME280;13848;49.018;12.078;2023-05-19T08:26:39;98106.16;;;15.85;52.36
26083;BME280;13848;49.018;12.078;2023-05-19T08:29:05;98101.38;;;15.92;52.35
26083;BME280;13848;49.018;12.078;2023-05-19T08:31:31;98095.41;;;16.07;52.17
26083;BME280;13848;49.018;12.078;2023-05-19T08:33:59;98096.63;;;16.16;52.00
26083;BME280;13848;49.018;12.078;2023-05-19T08:36:24;98089.19;;;16.29;51.69
26083;BME280;13848;49.018;12.078;2023-05-19T08:38:50;98097.31;;;16.23;51.44
26083;BME280;13848;49.018;12.078;2023-05-19T08:41:17;98090.88;;;16.30;51.51
26083;BME280;13848;49.018;12.078;2023-05-19T08:43:43;98090.59;;;16.14;51.14
26083;BME280;13848;49.018;12.078;2023-05-19T08:46:11;98088.78;;;16.03;51.26
26083;BME280;13848;49.018;12.078;2023-05-19T08:48:41;98084.59;;;15.95;50.38
26083;BME280;13848;49.018;12.078;2023-05-19T08:51:12;98080.88;;;15.85;50.04
26083;BME280;13848;49.018;12.078;2023-05-19T08:53:41;98076.91;;;15.76;50.98
26083;BME280;13848;49.018;12.078;2023-05-19T08:56:14;98077.56;;;16.16;50.29
26083;BME280;13848;49.018;12.078;2023-05-19T08:58:41;98073.22;;;16.15;50.37
26083;BME280;13848;49.018;12.078;2023-05-19T09:01:08;98066.41;;;16.52;52.46
26083;BME280;13848;49.018;12.078;2023-05-19T09:03:35;98064.03;;;16.94;50.75
26083;BME280;13848;49.018;12.078;2023-05-19T09:06:02;98060.44;;;17.15;50.68
26083;BME280;13848;49.018;12.078;2023-05-19T09:08:30;98062.00;;;17.33;49.83
26083;BME280;13848;49.018;12.078;2023-05-19T09:10:56;98051.50;;;17.20;50.00
26083;BME280;13848;49.018;12.078;2023-05-19T09:13:22;98060.34;;;16.83;48.21
26083;BME280;13848;49.018;12.078;2023-05-19T09:15:49;98059.13;;;17.18;48.61
26083;BME280;13848;49.018;12.078;2023-05-19T09:18:17;98057.09;;;17.30;47.65
26083;BME280;13848;49.018;12.078;2023-05-19T09:20:44;98059.53;;;17.32;48.60
26083;BME280;13848;49.018;12.078;2023-05-19T09:23:13;98059.44;;;16.78;47.39
26083;BME280;13848;49.018;12.078;2023-05-19T09:25:47;98054.50;;;16.74;48.72
26083;BME280;13848;49.018;12.078;2023-05-19T09:28:13;98059.78;;;16.64;48.62
26083;BME280;13848;49.018;12.078;2023-05-19T09:30:39;98057.13;;;16.69;48.08
26083;BME280;13848;49.018;12.078;2023-05-19T09:33:05;98047.88;;;16.87;48.85
26083;BME280;13848;49.018;12.078;2023-05-19T09:35:33;98047.50;;;17.27;49.13
26083;BME280;13848;49.018;12.078;2023-05-19T09:37:59;98043.19;;;17.59;48.32
26083;BME280;13848;49.018;12.078;2023-05-19T09:40:26;98051.84;;;17.77;46.67
26083;BME280;13848;49.018;12.078;2023-05-19T09:42:54;98047.41;;;17.44;46.89
26083;BME280;13848;49.018;12.078;2023-05-19T09:45:20;98038.22;;;17.77;47.57
26083;BME280;13848;49.018;12.078;2023-05-19T09:47:46;98050.81;;;17.84;46.73
26083;BME280;13848;49.018;12.078;2023-05-19T09:50:12;98040.50;;;17.91;46.82
26083;BME280;13848;49.018;12.078;2023-05-19T09:52:41;98038.94;;;18.00;46.48
26083;BME280;13848;49.018;12.078;2023-05-19T09:55:09;98033.94;;;18.24;46.48
26083;BME280;13848;49.018;12.078;2023-05-19T09:57:36;98035.59;;;17.88;45.37
26083;BME280;13848;49.018;12.078;2023-05-19T10:00:05;98026.75;;;17.75;45.69
26083;BME280;13848;49.018;12.078;2023-05-19T10:02:31;98037.44;;;18.19;46.74
26083;BME280;13848;49.018;12.078;2023-05-19T10:04:57;98030.31;;;18.50;46.29
26083;BME280;13848;49.018;12.078;2023-05-19T10:07:25;98026.88;;;17.91;45.56
26083;BME280;13848;49.018;12.078;2023-05-19T10:09:52;98037.44;;;17.55;45.69
26083;BME280;13848;49.018;12.078;2023-05-19T10:12:19;98032.44;;;18.06;46.90
26083;BME280;13848;49.018;12.078;2023-05-19T10:14:45;98024.44;;;18.31;46.56
26083;BME280;13848;49.018;12.078;2023-05-19T10:17:13;98019.53;;;18.33;46.28
26083;BME280;13848;49.018;12.078;2023-05-19T10:19:40;98013.22;;;18.28;45.91
26083;BME280;13848;49.018;12.078;2023-05-19T10:22:08;98018.06;;;18.16;46.37
26083;BME280;13848;49.018;12.078;2023-05-19T10:24:34;98016.84;;;18.39;46.89
26083;BME280;13848;49.018;12.078;2023-05-19T10:27:03;98012.72;;;18.36;46.86
26083;BME280;13848;49.018;12.078;2023-05-19T10:29:33;98005.97;;;18.06;47.09
26083;BME280;13848;49.018;12.078;2023-05-19T10:32:03;98010.78;;;18.26;46.41
26083;BME280;13848;49.018;12.078;2023-05-19T10:37:47;97996.75;;;18.60;46.94
26083;BME280;13848;49.018;12.078;2023-05-19T10:40:20;97994.97;;;18.81;46.85
26083;BME280;13848;49.018;12.078;2023-05-19T10:42:59;97988.13;;;18.83;45.71
26083;BME280;13848;49.018;12.078;2023-05-19T10:45:29;97981.38;;;18.49;46.34
26083;BME280;13848;49.018;12.078;2023-05-19T10:47:55;97981.56;;;18.74;46.68
26083;BME280;13848;49.018;12.078;2023-05-19T10:50:21;97983.78;;;18.87;46.44
26083;BME280;13848;49.018;12.078;2023-05-19T10:52:53;97990.16;;;18.51;45.63
26083;BME280;13848;49.018;12.078;2023-05-19T10:55:44;97987.38;;;18.41;47.47
26083;BME280;13848;49.018;12.078;2023-05-19T10:58:10;97990.41;;;18.44;46.09
26083;BME280;13848;49.018;12.078;2023-05-19T11:00:38;97980.22;;;18.34;46.52
26083;BME280;13848;49.018;12.078;2023-05-19T11:03:14;97983.06;;;18.55;47.08
26083;BME280;13848;49.018;12.078;2023-05-19T11:05:41;97982.94;;;18.29;46.16
26083;BME280;13848;49.018;12.078;2023-05-19T11:08:08;97986.19;;;18.21;47.31
26083;BME280;13848;49.018;12.078;2023-05-19T11:10:34;97991.25;;;18.55;47.23
26083;BME280;13848;49.018;12.078;2023-05-19T11:13:00;97982.69;;;18.36;45.61
26083;BME280;13848;49.018;12.078;2023-05-19T11:15:26;97976.31;;;18.20;46.02
26083;BME280;13848;49.018;12.078;2023-05-19T11:17:53;97973.06;;;18.71;46.86
26083;BME280;13848;49.018;12.078;2023-05-19T11:20:21;97980.03;;;19.09;47.13
26083;BME280;13848;49.018;12.078;2023-05-19T11:23:02;97973.53;;;19.56;46.48
26083;BME280;13848;49.018;12.078;2023-05-19T11:25:42;97962.63;;;19.86;45.61
26083;BME280;13848;49.018;12.078;2023-05-19T11:28:09;97962.91;;;19.80;44.52
26083;BME280;13848;49.018;12.078;2023-05-19T11:30:35;97961.81;;;19.91;45.61
26083;BME280;13848;49.018;12.078;2023-05-19T11:33:02;97964.81;;;19.64;45.12
26083;BME280;13848;49.018;12.078;2023-05-19T11:35:29;97966.03;;;18.85;44.43
26083;BME280;13848;49.018;12.078;2023-05-19T11:37:55;97970.19;;;19.13;45.35
26083;BME280;13848;49.018;12.078;2023-05-19T11:40:22;97966.38;;;19.09;44.78
26083;BME280;13848;49.018;12.078;2023-05-19T11:42:49;97973.97;;;18.92;45.29
26083;BME280;13848;49.018;12.078;2023-05-19T11:45:16;97974.06;;;19.32;45.05
26083;BME280;13848;49.018;12.078;2023-05-19T11:47:45;97954.66;;;19.39;43.87
26083;BME280;13848;49.018;12.078;2023-05-19T11:50:11;97956.25;;;19.25;44.90
26083;BME280;13848;49.018;12.078;2023-05-19T11:52:37;97954.94;;;19.53;45.00
26083;BME280;13848;49.018;12.078;2023-05-19T11:55:08;97956.81;;;19.27;45.33
26083;BME280;13848;49.018;12.078;2023-05-19T11:57:34;97957.94;;;19.41;44.61
26083;BME280;13848;49.018;12.078;2023-05-19T12:00:02;97965.28;;;19.30;45.37
26083;BME280;13848;49.018;12.078;2023-05-19T12:02:28;97965.06;;;19.37;44.16
26083;BME280;13848;49.018;12.078;2023-05-19T12:04:54;97957.41;;;19.49;44.77
26083;BME280;13848;49.018;12.078;2023-05-19T12:07:21;97962.59;;;19.46;45.23
26083;BME280;13848;49.018;12.078;2023-05-19T12:09:48;97969.09;;;19.09;45.44
26083;BME280;13848;49.018;12.078;2023-05-19T12:12:14;97968.03;;;19.25;45.73
26083;BME280;13848;49.018;12.078;2023-05-19T12:14:41;97963.38;;;19.16;45.87
26083;BME280;13848;49.018;12.078;2023-05-19T12:17:11;97955.41;;;18.99;45.59
26083;BME280;13848;49.018;12.078;2023-05-19T12:19:38;97954.34;;;19.10;45.90
26083;BME280;13848;49.018;12.078;2023-05-19T12:22:06;97969.09;;;19.09;45.43
26083;BME280;13848;49.018;12.078;2023-05-19T12:24:32;97961.50;;;19.31;45.96
26083;BME280;13848;49.018;12.078;2023-05-19T12:27:04;97954.44;;;19.61;45.85
26083;BME280;13848;49.018;12.078;2023-05-19T12:29:30;97936.34;;;19.80;45.49
26083;BME280;13848;49.018;12.078;2023-05-19T12:31:56;97931.94;;;20.00;44.99
26083;BME280;13848;49.018;12.078;2023-05-19T12:34:24;97937.72;;;19.88;44.93
26083;BME280;13848;49.018;12.078;2023-05-19T12:36:50;97930.31;;;19.58;45.14
26083;BME280;13848;49.018;12.078;2023-05-19T12:39:16;97940.75;;;19.66;45.64
26083;BME280;13848;49.018;12.078;2023-05-19T12:41:43;97934.72;;;19.59;43.99
26083;BME280;13848;49.018;12.078;2023-05-19T12:44:14;97931.97;;;19.84;45.16
26083;BME280;13848;49.018;12.078;2023-05-19T12:46:40;97933.63;;;19.65;43.82
26083;BME280;13848;49.018;12.078;2023-05-19T12:49:06;97915.00;;;19.47;44.38
26083;BME280;13848;49.018;12.078;2023-05-19T12:51:35;97925.69;;;19.84;45.66
26083;BME280;13848;49.018;12.078;2023-05-19T12:54:01;97922.09;;;19.88;44.96